Time;durP1;ratioP1;P1;durP2;ratioP2;P2;SDS_P1;SDS_P2;PMS_P1;PMS_P2;Temp;Humidity;BMP_temperature;BMP_pressure;BME280_temperature;BME280_humidity;BME280_pressure;Samples;Min_cycle;Max_cycle;Signal;HPM_P1;HPM_P2
2023/09/28 00:01:59;;;;;;;0.10;0.10;;;15.70;54.50;;;;;;5071402;28;20246;-45
2023/09/28 00:04:29;;;;;;;0.10;0.10;;;15.70;54.50;;;;;;5071415;28;20285;-45
2023/09/28 00:06:58;;;;;;;0.10;0.10;;;15.80;55.20;;;;;;5071656;28;20199;-46
2023/09/28 00:09:29;;;;;;;0.10;0.10;;;15.80;54.50;;;;;;5071122;28;20229;-45
2023/09/28 00:11:58;;;;;;;0.10;0.10;;;15.80;54.50;;;;;;5071266;28;20218;-45
2023/09/28 00:14:31;;;;;;;0.10;0.10;;;15.90;54.60;;;;;;5076689;28;20230;-45
2023/09/28 00:17:00;;;;;;;0.10;0.10;;;15.90;54.60;;;;;;5080923;28;20205;-46
2023/09/28 00:19:31;;;;;;;0.10;0.10;;;15.90;54.60;;;;;;5071499;28;20199;-46
2023/09/28 00:22:00;;;;;;;0.00;0.00;;;16.00;54.60;;;;;;5071346;28;20215;-45
2023/09/28 00:24:31;;;;;;;0.00;0.00;;;16.00;54.60;;;;;;5071310;28;20199;-45
2023/09/28 00:27:00;;;;;;;0.08;0.08;;;16.00;54.50;;;;;;5070928;28;20214;-45
2023/09/28 00:29:33;;;;;;;0.00;0.00;;;16.00;54.50;;;;;;5070662;28;20317;-45
2023/09/28 00:32:02;;;;;;;0.03;0.03;;;16.10;54.50;;;;;;5071198;28;20218;-45
2023/09/28 00:34:32;;;;;;;0.10;0.10;;;16.10;55.00;;;;;;5071500;28;20654;-45
2023/09/28 00:37:02;;;;;;;0.10;0.10;;;16.20;54.50;;;;;;5071051;28;20195;-45
2023/09/28 00:39:33;;;;;;;0.10;0.10;;;16.20;54.40;;;;;;5073286;28;20260;-46
2023/09/28 00:42:05;;;;;;;0.10;0.10;;;16.20;54.50;;;;;;5074824;28;20223;-45
2023/09/28 00:47:08;;;;;;;0.10;0.10;;;16.20;54.40;;;;;;5092779;28;20207;-59
2023/09/28 00:49:39;;;;;;;0.10;0.10;;;16.30;54.50;;;;;;5094680;28;20221;-57
2023/09/28 00:52:10;;;;;;;0.00;0.00;;;16.30;54.40;;;;;;5082971;28;20269;-54
2023/09/28 00:54:39;;;;;;;0.10;0.10;;;16.30;54.40;;;;;;5073579;28;20205;-57
2023/09/28 00:57:10;;;;;;;0.00;0.00;;;16.40;54.40;;;;;;5074772;28;20620;-55
2023/09/28 00:59:39;;;;;;;0.10;0.10;;;16.40;54.40;;;;;;5074653;28;20203;-58
2023/09/28 01:02:12;;;;;;;0.10;0.10;;;16.40;54.40;;;;;;5074888;28;20261;-53
2023/09/28 01:04:41;;;;;;;0.03;0.03;;;16.50;54.40;;;;;;5075942;28;20650;-58
2023/09/28 01:07:15;;;;;;;0.10;0.10;;;16.50;54.40;;;;;;5076031;28;20202;-58
2023/09/28 01:09:44;;;;;;;0.10;0.10;;;16.50;54.40;;;;;;5075707;28;20318;-56
2023/09/28 01:12:15;;;;;;;0.10;0.10;;;16.60;54.40;;;;;;5074332;28;20211;-58
2023/09/28 01:14:45;;;;;;;0.00;0.00;;;16.60;54.30;;;;;;5072220;28;20201;-58
2023/09/28 01:17:18;;;;;;;0.10;0.10;;;16.60;54.30;;;;;;5074078;28;20225;-58
2023/09/28 01:19:47;;;;;;;0.10;0.10;;;16.70;54.40;;;;;;5073937;28;20245;-58
2023/09/28 01:22:21;;;;;;;0.10;0.10;;;16.70;54.30;;;;;;5073928;28;20685;-58
2023/09/28 01:24:51;;;;;;;0.10;0.10;;;16.70;54.30;;;;;;5074141;28;20199;-56
2023/09/28 01:27:21;;;;;;;0.00;0.00;;;16.80;54.30;;;;;;5074283;28;20643;-58
2023/09/28 01:29:52;;;;;;;0.10;0.10;;;16.80;54.30;;;;;;5074082;28;20222;-56
2023/09/28 01:32:21;;;;;;;0.10;0.10;;;16.80;54.30;;;;;;5074325;28;20211;-58
2023/09/28 01:34:52;;;;;;;0.10;0.10;;;16.90;54.40;;;;;;5073866;28;20627;-55
2023/09/28 01:37:30;;;;;;;0.10;0.10;;;16.90;54.30;;;;;;5073767;28;20559;-57
2023/09/28 01:40:01;;;;;;;0.00;0.00;;;16.90;54.30;;;;;;5073525;28;20273;-56
2023/09/28 01:42:30;;;;;;;0.03;0.03;;;17.00;54.30;;;;;;5073405;28;20909;-57
2023/09/28 01:45:01;;;;;;;0.10;0.10;;;17.00;54.20;;;;;;5087926;22;20191;-46
2023/09/28 01:47:30;;;;;;;0.10;0.10;;;17.00;54.20;;;;;;5114161;28;20210;-45
2023/09/28 01:50:01;;;;;;;0.00;0.00;;;17.00;54.20;;;;;;5113896;28;20222;-46
2023/09/28 01:52:32;;;;;;;0.10;0.10;;;17.10;54.10;;;;;;5122204;27;20209;-47
2023/09/28 01:55:03;;;;;;;0.10;0.10;;;17.10;54.10;;;;;;5134659;27;20197;-46
2023/09/28 01:57:32;;;;;;;0.10;0.10;;;17.10;54.00;;;;;;5134216;27;20189;-47
2023/09/28 02:00:05;;;;;;;0.10;0.10;;;17.10;54.00;;;;;;5134747;27;20557;-45
2023/09/28 02:02:36;;;;;;;0.10;0.10;;;17.20;54.00;;;;;;5134364;27;20299;-45
2023/09/28 02:05:07;;;;;;;0.00;0.00;;;17.20;54.00;;;;;;5134669;27;20203;-46
2023/09/28 02:07:39;;;;;;;0.00;0.00;;;17.20;53.90;;;;;;5134667;27;20739;-45
2023/09/28 02:10:10;;;;;;;0.10;0.10;;;17.30;53.90;;;;;;5134126;27;20232;-46
2023/09/28 02:12:41;;;;;;;0.10;0.10;;;17.30;53.80;;;;;;5133932;27;20672;-44
2023/09/28 02:15:14;;;;;;;0.00;0.00;;;17.30;53.80;;;;;;5134442;27;20283;-46
2023/09/28 02:17:44;;;;;;;0.10;0.10;;;17.40;53.80;;;;;;5101061;27;20670;-47
2023/09/28 02:20:18;;;;;;;0.03;0.03;;;17.40;53.80;;;;;;5093088;28;20234;-47
2023/09/28 02:22:52;;;;;;;0.03;0.03;;;17.40;53.80;;;;;;5093177;28;20213;-46
2023/09/28 02:25:24;;;;;;;0.00;0.00;;;17.50;53.80;;;;;;5108641;28;20272;-45
2023/09/28 02:27:53;;;;;;;0.00;0.00;;;17.50;53.70;;;;;;5112965;28;20190;-46
2023/09/28 02:30:25;;;;;;;0.10;0.10;;;17.50;53.70;;;;;;5113486;28;20217;-45
2023/09/28 02:32:55;;;;;;;0.10;0.10;;;17.50;53.70;;;;;;5113374;28;20213;-47
2023/09/28 02:35:26;;;;;;;0.00;0.00;;;17.60;53.70;;;;;;5113521;28;20649;-46
2023/09/28 02:37:57;;;;;;;0.00;0.00;;;17.60;53.60;;;;;;5113848;28;20193;-45
2023/09/28 02:40:29;;;;;;;0.10;0.10;;;17.70;53.70;;;;;;5113138;28;20680;-47
2023/09/28 02:42:58;;;;;;;0.10;0.10;;;17.70;53.60;;;;;;5112667;28;20213;-47
2023/09/28 02:45:29;;;;;;;0.00;0.00;;;17.70;53.60;;;;;;5113522;28;20559;-45
2023/09/28 02:47:58;;;;;;;0.10;0.10;;;17.70;53.50;;;;;;5113192;28;20545;-47
2023/09/28 02:50:29;;;;;;;0.00;0.00;;;17.70;53.50;;;;;;5113205;28;20221;-46
2023/09/28 02:53:00;;;;;;;0.10;0.10;;;17.80;53.50;;;;;;5112728;28;20209;-46
2023/09/28 02:55:32;;;;;;;0.00;0.00;;;17.80;53.40;;;;;;5113012;28;20232;-45
2023/09/28 02:58:02;;;;;;;0.00;0.00;;;17.80;53.40;;;;;;5112706;28;20620;-46
2023/09/28 03:00:35;;;;;;;0.10;0.10;;;17.80;53.30;;;;;;5113303;28;20243;-47
2023/09/28 03:03:05;;;;;;;0.10;0.10;;;17.90;53.30;;;;;;5113025;28;20217;-47
2023/09/28 03:05:38;;;;;;;0.00;0.00;;;17.90;53.30;;;;;;5105385;28;20649;-47
2023/09/28 03:08:09;;;;;;;0.10;0.10;;;17.90;53.20;;;;;;5104063;28;20190;-46
2023/09/28 03:10:43;;;;;;;0.00;0.00;;;17.90;53.20;;;;;;5112439;28;20274;-47
2023/09/28 03:13:12;;;;;;;0.10;0.10;;;17.90;53.10;;;;;;5112080;28;20214;-46
2023/09/28 03:15:44;;;;;;;0.00;0.00;;;18.00;53.10;;;;;;5112781;28;20194;-45
2023/09/28 03:18:14;;;;;;;0.10;0.10;;;18.00;53.10;;;;;;5092238;28;20201;-47
2023/09/28 03:20:45;;;;;;;0.00;0.00;;;18.00;53.10;;;;;;5092149;28;20367;-45
2023/09/28 03:23:16;;;;;;;0.10;0.10;;;18.00;53.00;;;;;;5092063;28;20758;-45
2023/09/28 03:25:47;;;;;;;0.08;0.08;;;18.00;53.00;;;;;;5091829;28;20198;-45
2023/09/28 03:28:16;;;;;;;0.00;0.00;;;18.00;52.90;;;;;;5091540;28;20198;-47
2023/09/28 03:30:50;;;;;;;0.10;0.10;;;18.00;52.80;;;;;;5091534;28;20243;-45
2023/09/28 03:33:19;;;;;;;0.10;0.10;;;18.10;52.80;;;;;;5092048;28;20218;-45
2023/09/28 03:35:50;;;;;;;0.10;0.10;;;18.10;52.80;;;;;;5091956;28;20194;-46
2023/09/28 03:38:22;;;;;;;0.00;0.00;;;18.10;52.80;;;;;;5091980;28;20198;-47
2023/09/28 03:40:53;;;;;;;0.05;0.05;;;18.10;52.70;;;;;;5091476;28;20564;-45
2023/09/28 03:43:24;;;;;;;0.10;0.10;;;18.10;52.70;;;;;;5091556;28;20217;-45
2023/09/28 03:45:55;;;;;;;0.10;0.10;;;18.10;52.70;;;;;;5095016;22;20234;-63
2023/09/28 03:48:25;;;;;;;0.10;0.10;;;18.10;52.60;;;;;;5068444;28;20198;-62
2023/09/28 03:50:56;;;;;;;0.10;0.10;;;18.10;52.50;;;;;;5071617;28;20222;-62
2023/09/28 03:53:29;;;;;;;0.10;0.10;;;18.10;52.50;;;;;;5071463;28;20218;-61
2023/09/28 03:55:59;;;;;;;0.10;0.10;;;18.10;52.50;;;;;;5071183;28;20198;-63
2023/09/28 03:58:30;;;;;;;0.10;0.10;;;18.10;52.50;;;;;;5071280;28;20201;-63
2023/09/28 04:01:03;;;;;;;0.10;0.10;;;18.10;52.40;;;;;;5071118;28;20249;-62
2023/09/28 04:03:33;;;;;;;0.10;0.10;;;18.10;52.50;;;;;;5070880;28;20250;-61
2023/09/28 04:06:04;;;;;;;0.10;0.10;;;18.10;52.50;;;;;;5071089;28;20200;-60
2023/09/28 04:08:37;;;;;;;0.08;0.08;;;18.20;52.50;;;;;;5071320;28;20198;-60
2023/09/28 04:11:07;;;;;;;0.10;0.10;;;18.20;53.00;;;;;;5070914;28;20582;-62
2023/09/28 04:13:38;;;;;;;0.10;0.10;;;18.20;52.50;;;;;;5072307;28;20210;-60
2023/09/28 04:16:09;;;;;;;0.08;0.08;;;18.20;52.50;;;;;;5072373;28;20199;-59
2023/09/28 04:18:39;;;;;;;0.10;0.10;;;18.20;52.40;;;;;;5055620;28;20195;-62
2023/09/28 04:21:10;;;;;;;0.00;0.00;;;18.20;52.30;;;;;;5055663;28;20204;-61
2023/09/28 04:23:42;;;;;;;0.10;0.10;;;18.20;52.30;;;;;;5055396;28;20592;-62
2023/09/28 04:26:14;;;;;;;0.10;0.10;;;18.20;52.30;;;;;;5053897;28;20195;-61
2023/09/28 04:28:45;;;;;;;0.10;0.10;;;18.20;52.30;;;;;;5054952;28;20191;-64
2023/09/28 04:31:15;;;;;;;0.00;0.00;;;18.20;52.30;;;;;;5055079;28;20234;-63
2023/09/28 04:33:46;;;;;;;0.00;0.00;;;18.20;52.20;;;;;;5055162;28;20222;-61
2023/09/28 04:36:16;;;;;;;0.10;0.10;;;18.20;52.20;;;;;;5054986;28;20236;-61
2023/09/28 04:38:49;;;;;;;0.00;0.00;;;18.20;52.20;;;;;;5055222;28;20191;-63
2023/09/28 04:41:20;;;;;;;0.00;0.00;;;18.20;52.20;;;;;;5054015;28;20729;-64
2023/09/28 04:43:50;;;;;;;0.00;0.00;;;18.20;52.20;;;;;;5054593;28;20600;-61
2023/09/28 04:46:21;;;;;;;0.03;0.03;;;18.20;52.30;;;;;;5075234;22;20231;-45
2023/09/28 04:48:52;;;;;;;0.00;0.00;;;18.20;52.30;;;;;;5054539;28;20659;-46
2023/09/28 04:51:23;;;;;;;0.10;0.10;;;18.20;52.20;;;;;;5054353;28;20258;-45
2023/09/28 04:53:55;;;;;;;0.03;0.03;;;18.20;52.20;;;;;;5034808;28;20196;-45
2023/09/28 04:56:26;;;;;;;0.10;0.10;;;18.20;52.20;;;;;;5034154;28;20200;-46
2023/09/28 04:58:57;;;;;;;0.10;0.10;;;18.20;52.10;;;;;;5034964;28;20196;-45
2023/09/28 05:01:27;;;;;;;0.08;0.08;;;18.20;52.10;;;;;;5037213;28;20197;-45
2023/09/28 05:03:59;;;;;;;0.03;0.03;;;18.20;52.20;;;;;;5035204;28;20196;-45
2023/09/28 05:06:29;;;;;;;0.05;0.05;;;18.20;52.20;;;;;;5034553;28;20207;-45
2023/09/28 05:09:02;;;;;;;0.10;0.10;;;18.20;52.20;;;;;;5034742;28;20238;-47
2023/09/28 05:11:33;;;;;;;0.00;0.00;;;18.20;52.10;;;;;;5033872;28;20333;-47
2023/09/28 05:14:04;;;;;;;0.10;0.10;;;18.20;52.10;;;;;;5034746;28;20660;-45
2023/09/28 05:16:34;;;;;;;0.05;0.05;;;18.20;52.00;;;;;;5040885;28;20545;-45
2023/09/28 05:19:05;;;;;;;0.10;0.10;;;18.20;52.00;;;;;;5054772;28;20206;-45
2023/09/28 05:21:36;;;;;;;0.00;0.00;;;18.20;52.00;;;;;;5054581;28;20214;-45
2023/09/28 05:24:09;;;;;;;0.10;0.10;;;18.20;52.10;;;;;;5054255;28;20196;-45
2023/09/28 05:26:39;;;;;;;0.00;0.00;;;18.20;52.00;;;;;;5052618;28;20678;-45
2023/09/28 05:29:10;;;;;;;0.08;0.08;;;18.20;52.00;;;;;;5053977;28;20231;-46
2023/09/28 05:31:41;;;;;;;0.00;0.00;;;18.20;52.00;;;;;;5053884;28;20223;-45
2023/09/28 05:34:11;;;;;;;0.00;0.00;;;18.20;52.00;;;;;;5053808;28;20655;-47
2023/09/28 05:36:42;;;;;;;0.00;0.00;;;18.20;51.90;;;;;;5053574;28;20234;-46
2023/09/28 05:39:14;;;;;;;0.10;0.10;;;18.20;51.90;;;;;;5053595;28;20191;-45
2023/09/28 05:41:45;;;;;;;0.00;0.00;;;18.20;51.90;;;;;;5052649;28;20215;-45
2023/09/28 05:44:16;;;;;;;0.10;0.10;;;18.20;51.90;;;;;;5053422;28;20195;-46
2023/09/28 05:46:47;;;;;;;0.00;0.00;;;18.20;51.80;;;;;;5053780;28;20215;-45
2023/09/28 05:49:18;;;;;;;0.10;0.10;;;18.20;51.80;;;;;;5053705;28;20204;-45
2023/09/28 05:51:49;;;;;;;0.00;0.00;;;18.20;51.80;;;;;;5053768;28;20223;-46
2023/09/28 05:54:21;;;;;;;0.05;0.05;;;18.20;51.80;;;;;;5053660;28;20199;-45
2023/09/28 05:56:52;;;;;;;0.00;0.00;;;18.20;51.70;;;;;;5050290;28;20184;-45
2023/09/28 05:59:23;;;;;;;0.10;0.10;;;18.20;51.60;;;;;;5053319;28;20196;-45
2023/09/28 06:01:53;;;;;;;0.00;0.00;;;18.20;51.60;;;;;;5052829;28;20223;-45
2023/09/28 06:04:25;;;;;;;0.10;0.10;;;18.20;51.60;;;;;;5053235;28;20214;-45
2023/09/28 06:06:55;;;;;;;0.10;0.10;;;18.20;51.70;;;;;;5053410;28;20191;-45
2023/09/28 06:09:28;;;;;;;0.00;0.00;;;18.20;51.70;;;;;;5053595;28;20200;-46
2023/09/28 06:12:00;;;;;;;0.00;0.00;;;18.20;51.70;;;;;;5053142;28;20226;-46
2023/09/28 06:14:30;;;;;;;0.10;0.10;;;18.20;51.70;;;;;;5053210;28;20210;-45
2023/09/28 06:17:02;;;;;;;0.00;0.00;;;18.20;51.70;;;;;;5053322;28;20200;-45
2023/09/28 06:19:33;;;;;;;0.10;0.10;;;18.20;51.70;;;;;;5053137;28;20199;-46
2023/09/28 06:22:08;;;;;;;0.10;0.10;;;18.20;51.70;;;;;;5053022;28;20563;-46
2023/09/28 06:24:41;;;;;;;0.10;0.10;;;18.20;51.70;;;;;;5050898;28;20198;-45
2023/09/28 06:27:12;;;;;;;0.00;0.00;;;18.20;51.60;;;;;;5052967;28;20199;-46
2023/09/28 06:29:42;;;;;;;0.00;0.00;;;18.20;51.60;;;;;;5052951;28;20671;-45
2023/09/28 06:32:13;;;;;;;0.10;0.10;;;18.20;51.50;;;;;;5052950;28;20224;-45
2023/09/28 06:34:44;;;;;;;0.10;0.10;;;18.20;51.50;;;;;;5052463;28;20609;-46
2023/09/28 06:37:14;;;;;;;0.00;0.00;;;18.10;51.50;;;;;;5050284;28;20648;-45
2023/09/28 06:39:47;;;;;;;0.00;0.00;;;18.10;51.50;;;;;;5051324;28;20686;-45
2023/09/28 06:42:18;;;;;;;0.03;0.03;;;18.10;51.50;;;;;;5052265;28;20687;-45
2023/09/28 06:44:56;;;;;;;0.10;0.10;;;18.10;51.50;;;;;;5052312;28;20208;-46
2023/09/28 06:47:26;;;;;;;0.00;0.00;;;18.10;51.60;;;;;;5052154;28;20199;-45
2023/09/28 06:49:57;;;;;;;0.03;0.03;;;18.10;51.50;;;;;;5053172;28;20235;-45
2023/09/28 06:52:28;;;;;;;0.00;0.00;;;18.10;51.70;;;;;;5052320;28;20745;-45
2023/09/28 06:55:00;;;;;;;0.10;0.10;;;18.10;51.50;;;;;;5051887;28;20203;-44
2023/09/28 06:57:31;;;;;;;0.00;0.00;;;18.10;51.50;;;;;;5052343;28;20203;-47
2023/09/28 07:00:06;;;;;;;0.10;0.10;;;18.10;51.50;;;;;;5051854;28;20241;-45
2023/09/28 07:02:36;;;;;;;0.03;0.03;;;18.10;51.40;;;;;;5051897;28;20258;-46
2023/09/28 07:05:08;;;;;;;0.00;0.00;;;18.10;51.30;;;;;;5052276;28;20210;-46
2023/09/28 07:07:39;;;;;;;0.00;0.00;;;18.10;51.30;;;;;;5044120;28;20195;-46
2023/09/28 07:10:12;;;;;;;0.10;0.10;;;18.10;51.30;;;;;;5031549;28;20216;-45
2023/09/28 07:12:43;;;;;;;0.00;0.00;;;18.00;51.20;;;;;;5031940;28;20433;-46
2023/09/28 07:15:14;;;;;;;0.00;0.00;;;18.00;51.20;;;;;;5032520;28;20224;-46
2023/09/28 07:17:45;;;;;;;0.00;0.00;;;18.00;51.20;;;;;;5048266;28;20200;-45
2023/09/28 07:20:16;;;;;;;0.00;0.00;;;18.00;51.20;;;;;;5051995;28;20208;-45
2023/09/28 07:22:46;;;;;;;0.00;0.00;;;18.00;51.30;;;;;;5052179;28;20691;-47
2023/09/28 07:25:19;;;;;;;0.10;0.10;;;18.00;51.30;;;;;;5051007;28;20199;-45
2023/09/28 07:27:52;;;;;;;0.00;0.00;;;17.90;51.30;;;;;;5051714;28;20199;-46
2023/09/28 07:30:23;;;;;;;0.00;0.00;;;17.90;51.30;;;;;;5051758;28;20230;-46
2023/09/28 07:32:54;;;;;;;0.00;0.00;;;17.90;51.30;;;;;;5051654;28;20220;-45
2023/09/28 07:35:25;;;;;;;0.00;0.00;;;17.90;51.30;;;;;;5051541;28;20199;-44
2023/09/28 07:37:55;;;;;;;0.00;0.00;;;17.90;51.30;;;;;;5052023;28;20195;-46
2023/09/28 07:40:28;;;;;;;0.05;0.05;;;17.90;51.30;;;;;;5051197;28;20206;-45
2023/09/28 07:42:59;;;;;;;0.03;0.03;;;17.90;51.30;;;;;;5051277;28;20251;-46
2023/09/28 07:45:29;;;;;;;0.10;0.10;;;17.90;51.30;;;;;;5051985;28;20667;-45
2023/09/28 07:48:01;;;;;;;0.10;0.10;;;17.90;51.30;;;;;;5051327;28;20207;-46
2023/09/28 07:50:31;;;;;;;0.05;0.05;;;17.90;51.30;;;;;;5051155;28;20250;-45
2023/09/28 07:53:02;;;;;;;0.00;0.00;;;17.80;51.20;;;;;;5050939;28;20219;-45
2023/09/28 07:55:34;;;;;;;0.05;0.05;;;17.80;51.20;;;;;;5051445;28;20214;-45
2023/09/28 07:58:05;;;;;;;0.10;0.10;;;17.80;51.30;;;;;;5048306;28;20198;-44
2023/09/28 08:00:36;;;;;;;0.05;0.05;;;17.80;51.20;;;;;;5051300;28;20202;-45
2023/09/28 08:03:07;;;;;;;0.00;0.00;;;17.80;51.30;;;;;;5051335;28;20247;-45
2023/09/28 08:05:37;;;;;;;0.00;0.00;;;17.80;51.30;;;;;;5051564;28;20253;-46
2023/09/28 08:08:08;;;;;;;0.10;0.10;;;17.80;51.30;;;;;;5051215;28;20204;-46
2023/09/28 08:10:42;;;;;;;0.10;0.10;;;17.70;51.30;;;;;;5050914;28;20215;-45
2023/09/28 08:13:12;;;;;;;0.10;0.10;;;17.70;51.30;;;;;;5051315;28;20257;-45
2023/09/28 08:15:44;;;;;;;0.10;0.10;;;17.70;51.30;;;;;;5051139;28;20206;-45
2023/09/28 08:18:15;;;;;;;0.00;0.00;;;17.70;51.30;;;;;;5031473;28;20570;-45
2023/09/28 08:20:46;;;;;;;0.00;0.00;;;17.70;51.30;;;;;;5031193;28;20249;-44
2023/09/28 08:23:16;;;;;;;0.00;0.00;;;17.70;51.30;;;;;;5030730;28;20220;-46
2023/09/28 08:25:49;;;;;;;0.08;0.08;;;17.70;51.30;;;;;;5031036;28;20199;-44
2023/09/28 08:28:19;;;;;;;0.10;0.10;;;17.70;51.30;;;;;;5033596;28;20612;-45
2023/09/28 08:30:53;;;;;;;0.08;0.08;;;17.70;51.30;;;;;;5051304;28;20219;-46
2023/09/28 08:33:24;;;;;;;0.03;0.03;;;17.60;51.30;;;;;;5051451;28;20219;-45
2023/09/28 08:35:55;;;;;;;0.10;0.10;;;17.60;51.30;;;;;;5051181;28;20199;-46
2023/09/28 08:38:25;;;;;;;0.10;0.10;;;17.60;51.40;;;;;;5050503;28;20191;-44
2023/09/28 08:41:02;;;;;;;0.00;0.00;;;17.60;51.40;;;;;;5047889;28;20200;-45
2023/09/28 08:43:39;;;;;;;0.10;0.10;;;17.60;51.40;;;;;;5051339;28;20277;-44
2023/09/28 08:46:12;;;;;;;0.10;0.10;;;17.60;51.40;;;;;;5064012;22;20226;-64
2023/09/28 08:48:46;;;;;;;0.03;0.03;;;17.50;51.30;;;;;;5051066;28;20196;-59
2023/09/28 08:51:18;;;;;;;0.00;0.00;;;17.50;51.40;;;;;;5050598;28;20255;-63
2023/09/28 08:53:52;;;;;;;0.10;0.10;;;17.50;51.40;;;;;;5050012;28;20233;-62
2023/09/28 08:56:25;;;;;;;0.10;0.10;;;17.50;51.40;;;;;;5050433;28;20607;-62
2023/09/28 08:58:57;;;;;;;0.00;0.00;;;17.50;51.30;;;;;;5050577;28;20218;-61
2023/09/28 09:01:28;;;;;;;0.10;0.10;;;17.50;51.30;;;;;;5034728;28;20197;-61
2023/09/28 09:03:59;;;;;;;0.05;0.05;;;17.50;51.40;;;;;;5035011;28;20208;-59
2023/09/28 09:06:32;;;;;;;0.00;0.00;;;17.40;51.30;;;;;;5034995;28;20200;-63
2023/09/28 09:09:05;;;;;;;0.10;0.10;;;17.40;51.30;;;;;;5034310;28;20203;-64
2023/09/28 09:11:37;;;;;;;0.00;0.00;;;17.40;51.30;;;;;;5034359;28;20224;-61
2023/09/28 09:14:08;;;;;;;0.00;0.00;;;17.40;51.30;;;;;;5043642;28;20191;-60
2023/09/28 09:16:39;;;;;;;0.00;0.00;;;17.40;51.30;;;;;;5054206;28;20200;-61
2023/09/28 09:19:09;;;;;;;0.10;0.10;;;17.40;51.30;;;;;;5054066;28;20232;-62
2023/09/28 09:21:43;;;;;;;0.10;0.10;;;17.30;51.20;;;;;;5053921;28;20196;-61
2023/09/28 09:24:18;;;;;;;0.00;0.00;;;17.30;51.20;;;;;;5053455;28;20200;-62
2023/09/28 09:26:53;;;;;;;0.10;0.10;;;17.30;51.20;;;;;;5054326;28;20618;-63
2023/09/28 09:29:24;;;;;;;0.10;0.10;;;17.30;51.20;;;;;;5053958;28;20198;-63
2023/09/28 09:31:55;;;;;;;0.00;0.00;;;17.30;51.20;;;;;;5053537;28;20259;-62
2023/09/28 09:34:26;;;;;;;0.10;0.10;;;17.20;51.20;;;;;;5053808;28;20196;-62
2023/09/28 09:37:00;;;;;;;0.10;0.10;;;17.20;51.20;;;;;;5053848;28;20198;-61
2023/09/28 09:39:32;;;;;;;0.00;0.00;;;17.20;51.20;;;;;;5053802;28;20194;-58
2023/09/28 09:42:04;;;;;;;0.00;0.00;;;17.10;51.20;;;;;;5053709;28;20251;-61
2023/09/28 09:44:35;;;;;;;0.10;0.10;;;17.10;51.30;;;;;;5053890;28;20655;-61
2023/09/28 09:47:06;;;;;;;0.00;0.00;;;17.10;51.20;;;;;;5054144;28;20694;-65
2023/09/28 09:49:37;;;;;;;0.10;0.10;;;17.10;51.30;;;;;;5053195;28;20192;-63
2023/09/28 09:52:09;;;;;;;0.03;0.03;;;17.10;51.30;;;;;;5053150;28;20226;-60
2023/09/28 09:54:41;;;;;;;0.10;0.10;;;17.00;51.30;;;;;;5053784;28;20204;-64
2023/09/28 09:57:18;;;;;;;0.00;0.00;;;17.00;51.30;;;;;;5053847;28;20195;-62
2023/09/28 09:59:49;;;;;;;0.10;0.10;;;17.00;51.30;;;;;;5053527;28;20286;-61
2023/09/28 10:02:28;;;;;;;0.00;0.00;;;16.90;51.80;;;;;;5053822;28;20219;-59
2023/09/28 10:05:01;;;;;;;0.10;0.10;;;16.90;51.30;;;;;;5053459;28;20195;-61
2023/09/28 10:07:36;;;;;;;0.00;0.00;;;16.90;51.30;;;;;;5052975;28;20196;-62
2023/09/28 10:10:07;;;;;;;0.10;0.10;;;16.90;51.30;;;;;;5053076;28;20191;-65
2023/09/28 10:12:40;;;;;;;0.10;0.10;;;16.90;51.40;;;;;;5051853;28;20266;-60
2023/09/28 10:15:13;;;;;;;0.10;0.10;;;16.90;51.30;;;;;;5053198;28;20200;-64
2023/09/28 10:17:43;;;;;;;0.00;0.00;;;16.80;51.30;;;;;;5036231;28;20276;-61
2023/09/28 10:20:15;;;;;;;0.10;0.10;;;16.80;51.30;;;;;;5053239;28;20261;-59
2023/09/28 10:22:47;;;;;;;0.10;0.10;;;16.80;51.30;;;;;;5052771;28;20274;-62
2023/09/28 10:25:20;;;;;;;0.00;0.00;;;16.80;51.30;;;;;;5053139;28;20195;-61
2023/09/28 10:27:59;;;;;;;0.00;0.00;;;16.70;51.30;;;;;;5052293;28;20195;-60
2023/09/28 10:30:30;;;;;;;0.10;0.10;;;16.70;51.30;;;;;;5052954;28;20655;-61
2023/09/28 10:33:12;;;;;;;0.10;0.10;;;16.70;51.30;;;;;;5052936;28;20230;-62
2023/09/28 10:35:44;;;;;;;0.10;0.10;;;16.70;51.40;;;;;;5052568;28;20200;-61
2023/09/28 10:38:24;;;;;;;0.00;0.00;;;16.70;51.30;;;;;;5052434;28;20195;-63
2023/09/28 10:41:09;;;;;;;0.10;0.10;;;16.60;51.30;;;;;;5052251;28;20264;-64
2023/09/28 10:43:45;;;;;;;0.10;0.10;;;16.60;51.30;;;;;;5052221;28;20251;-62
2023/09/28 10:46:15;;;;;;;0.05;0.05;;;16.60;51.30;;;;;;5052877;28;20614;-61
2023/09/28 10:48:46;;;;;;;0.10;0.10;;;16.60;51.40;;;;;;5052458;28;20191;-62
2023/09/28 10:51:18;;;;;;;0.00;0.00;;;16.60;51.40;;;;;;5051636;28;20349;-61
2023/09/28 10:53:49;;;;;;;0.00;0.00;;;16.60;51.40;;;;;;5052078;28;20216;-63
2023/09/28 10:56:20;;;;;;;0.00;0.00;;;16.60;51.40;;;;;;5052336;28;20663;-61
2023/09/28 10:58:52;;;;;;;0.10;0.10;;;16.50;51.40;;;;;;5052090;28;20200;-62
2023/09/28 11:01:23;;;;;;;0.10;0.10;;;16.50;51.40;;;;;;5052323;28;20212;-62
2023/09/28 11:03:55;;;;;;;0.10;0.10;;;16.50;51.40;;;;;;5052220;28;20206;-66
2023/09/28 11:06:27;;;;;;;0.10;0.10;;;16.50;51.40;;;;;;5052210;28;20393;-64
2023/09/28 11:09:01;;;;;;;0.03;0.03;;;16.50;51.40;;;;;;5052347;28;20651;-63
2023/09/28 11:11:32;;;;;;;0.10;0.10;;;16.50;51.40;;;;;;5051978;28;20690;-62
2023/09/28 11:14:05;;;;;;;0.00;0.00;;;16.40;51.40;;;;;;5051861;28;20203;-62
2023/09/28 11:16:38;;;;;;;0.00;0.00;;;16.40;51.40;;;;;;5051956;28;20693;-58
2023/09/28 11:19:10;;;;;;;0.00;0.00;;;16.40;51.40;;;;;;5052252;28;20206;-62
2023/09/28 11:21:43;;;;;;;0.10;0.10;;;16.40;51.40;;;;;;5051180;28;20207;-59
2023/09/28 11:24:14;;;;;;;0.10;0.10;;;16.30;51.40;;;;;;5051251;28;20608;-63
2023/09/28 11:26:45;;;;;;;0.10;0.10;;;16.40;51.50;;;;;;5051904;28;20202;-63
2023/09/28 11:29:18;;;;;;;0.10;0.10;;;16.40;51.50;;;;;;5052103;28;20195;-60
2023/09/28 11:31:55;;;;;;;0.10;0.10;;;16.30;51.50;;;;;;5051857;28;20226;-63
2023/09/28 11:34:33;;;;;;;0.00;0.00;;;16.30;51.50;;;;;;5051769;28;20667;-60
2023/09/28 11:37:03;;;;;;;0.00;0.00;;;16.30;51.40;;;;;;5051351;28;20209;-60
2023/09/28 11:39:34;;;;;;;0.10;0.10;;;16.30;51.50;;;;;;5052288;28;20195;-62
2023/09/28 11:42:07;;;;;;;0.00;0.00;;;16.30;51.50;;;;;;5051725;28;20755;-61
2023/09/28 11:44:40;;;;;;;0.10;0.10;;;16.20;51.40;;;;;;5051012;28;20591;-64
2023/09/28 11:47:10;;;;;;;0.10;0.10;;;16.20;51.50;;;;;;5108311;22;20228;-45
2023/09/28 11:49:44;;;;;;;0.10;0.10;;;16.20;51.50;;;;;;5112189;28;20198;-47
2023/09/28 11:52:17;;;;;;;0.10;0.10;;;16.20;51.50;;;;;;5112012;28;20233;-44
2023/09/28 11:54:48;;;;;;;0.10;0.10;;;16.20;51.50;;;;;;5112093;28;20653;-46
2023/09/28 11:57:20;;;;;;;0.00;0.00;;;16.20;51.50;;;;;;5111647;28;20197;-44
2023/09/28 11:59:52;;;;;;;0.10;0.10;;;16.20;51.50;;;;;;5111831;28;20770;-45
2023/09/28 12:02:24;;;;;;;0.10;0.10;;;16.10;51.50;;;;;;5112262;28;20245;-45
2023/09/28 12:04:55;;;;;;;0.10;0.10;;;16.10;51.40;;;;;;5111763;28;20457;-44
2023/09/28 12:07:26;;;;;;;0.10;0.10;;;16.10;51.60;;;;;;5111959;28;20585;-44
2023/09/28 12:09:57;;;;;;;0.10;0.10;;;16.10;51.50;;;;;;5111903;28;20676;-45
2023/09/28 12:12:27;;;;;;;0.10;0.10;;;16.10;51.50;;;;;;5111745;28;20275;-44
2023/09/28 12:15:00;;;;;;;0.00;0.00;;;16.10;51.40;;;;;;5112137;28;20193;-44
2023/09/28 12:17:31;;;;;;;0.00;0.00;;;16.00;51.50;;;;;;5111701;28;20201;-44
2023/09/28 12:20:02;;;;;;;0.10;0.10;;;16.00;51.40;;;;;;5111954;28;20201;-45
2023/09/28 12:22:33;;;;;;;0.10;0.10;;;16.00;51.40;;;;;;5111931;28;20213;-45
2023/09/28 12:25:05;;;;;;;0.00;0.00;;;16.00;51.50;;;;;;5111672;28;20284;-43
2023/09/28 12:27:36;;;;;;;0.10;0.10;;;16.00;51.40;;;;;;5111668;28;20193;-45
2023/09/28 12:30:09;;;;;;;0.05;0.05;;;15.90;51.40;;;;;;5111940;28;20280;-45
2023/09/28 12:32:44;;;;;;;0.10;0.10;;;15.90;51.40;;;;;;5111501;28;20216;-45
2023/09/28 12:35:15;;;;;;;0.10;0.10;;;15.90;51.50;;;;;;5113499;28;20189;-45
2023/09/28 12:37:45;;;;;;;0.10;0.10;;;15.90;51.50;;;;;;5115638;28;20563;-45
2023/09/28 12:40:17;;;;;;;0.00;0.00;;;15.90;51.50;;;;;;5115652;28;20233;-46
2023/09/28 12:42:48;;;;;;;0.10;0.10;;;15.90;51.50;;;;;;5114462;28;20233;-44
2023/09/28 12:47:49;;;;;;;0.10;0.10;;;15.90;51.50;;;;;;5092409;28;20214;-60
2023/09/28 12:50:20;;;;;;;0.10;0.10;;;15.90;51.50;;;;;;5095477;28;20244;-61
2023/09/28 12:52:50;;;;;;;0.10;0.10;;;15.80;51.40;;;;;;5094954;28;20238;-62
2023/09/28 12:55:21;;;;;;;0.03;0.03;;;15.80;51.50;;;;;;5095242;28;20202;-60
2023/09/28 12:57:52;;;;;;;0.10;0.10;;;15.80;51.40;;;;;;5095028;28;20723;-63
2023/09/28 13:00:25;;;;;;;0.10;0.10;;;15.80;51.40;;;;;;5095026;28;20673;-61
2023/09/28 13:02:58;;;;;;;0.10;0.10;;;15.80;51.40;;;;;;5094791;28;20210;-63
2023/09/28 13:05:29;;;;;;;0.10;0.10;;;15.80;51.40;;;;;;5094846;28;20233;-60
2023/09/28 13:08:00;;;;;;;0.10;0.10;;;15.80;51.40;;;;;;5095074;28;20259;-63
2023/09/28 13:10:31;;;;;;;0.10;0.10;;;15.70;51.40;;;;;;5094816;28;20749;-62
2023/09/28 13:13:02;;;;;;;0.10;0.10;;;15.70;52.00;;;;;;5094406;28;20233;-61
2023/09/28 13:15:32;;;;;;;0.10;0.10;;;15.70;51.40;;;;;;5094542;28;20201;-64